sensor_id;sensor_type;location;lat;lon;timestamp;P1;durP1;ratioP1;P2;durP2;ratioP2
20754;SDS011;26385;48.470;7.938;2022-09-02T00:00:53;5.05;;;4.65;;
20754;SDS011;26385;48.470;7.938;2022-09-02T00:03:28;5.32;;;4.72;;
20754;SDS011;26385;48.470;7.938;2022-09-02T00:05:55;5.43;;;4.50;;
20754;SDS011;26385;48.470;7.938;2022-09-02T00:08:21;7.47;;;4.95;;
20754;SDS011;26385;48.470;7.938;2022-09-02T00:10:48;5.57;;;4.47;;
20754;SDS011;26385;48.470;7.938;2022-09-02T00:13:14;5.90;;;5.03;;
20754;SDS011;26385;48.470;7.938;2022-09-02T00:15:41;5.50;;;5.07;;
20754;SDS011;26385;48.470;7.938;2022-09-02T00:18:07;5.82;;;5.22;;
20754;SDS011;26385;48.470;7.938;2022-09-02T00:20:38;5.25;;;4.72;;
20754;SDS011;26385;48.470;7.938;2022-09-02T00:23:05;7.40;;;5.43;;
20754;SDS011;26385;48.470;7.938;2022-09-02T00:25:32;4.97;;;4.57;;
20754;SDS011;26385;48.470;7.938;2022-09-02T00:27:57;6.30;;;4.70;;
20754;SDS011;26385;48.470;7.938;2022-09-02T00:30:22;5.13;;;4.72;;
20754;SDS011;26385;48.470;7.938;2022-09-02T00:32:48;5.10;;;4.60;;
20754;SDS011;26385;48.470;7.938;2022-09-02T00:35:13;7.05;;;4.88;;
20754;SDS011;26385;48.470;7.938;2022-09-02T00:37:38;6.47;;;4.95;;
20754;SDS011;26385;48.470;7.938;2022-09-02T00:40:04;5.00;;;4.63;;
20754;SDS011;26385;48.470;7.938;2022-09-02T00:42:31;5.57;;;4.90;;
20754;SDS011;26385;48.470;7.938;2022-09-02T00:44:57;5.30;;;4.80;;
20754;SDS011;26385;48.470;7.938;2022-09-02T00:47:23;5.15;;;4.75;;
20754;SDS011;26385;48.470;7.938;2022-09-02T00:49:49;5.47;;;4.95;;
20754;SDS011;26385;48.470;7.938;2022-09-02T00:52:18;6.90;;;5.00;;
20754;SDS011;26385;48.470;7.938;2022-09-02T00:54:49;5.47;;;4.97;;
20754;SDS011;26385;48.470;7.938;2022-09-02T00:57:21;6.00;;;5.15;;
20754;SDS011;26385;48.470;7.938;2022-09-02T01:00:06;4.90;;;4.40;;
20754;SDS011;26385;48.470;7.938;2022-09-02T01:02:32;5.55;;;4.80;;
20754;SDS011;26385;48.470;7.938;2022-09-02T01:04:59;5.20;;;4.70;;
20754;SDS011;26385;48.470;7.938;2022-09-02T01:07:27;5.40;;;4.60;;
20754;SDS011;26385;48.470;7.938;2022-09-02T01:09:54;5.10;;;4.60;;
20754;SDS011;26385;48.470;7.938;2022-09-02T01:12:22;5.43;;;4.60;;
20754;SDS011;26385;48.470;7.938;2022-09-02T01:14:48;5.10;;;4.70;;
20754;SDS011;26385;48.470;7.938;2022-09-02T01:17:14;4.97;;;4.57;;
20754;SDS011;26385;48.470;7.938;2022-09-02T01:19:45;5.07;;;4.30;;
20754;SDS011;26385;48.470;7.938;2022-09-02T01:22:18;5.97;;;4.72;;
20754;SDS011;26385;48.470;7.938;2022-09-02T01:24:48;5.00;;;4.60;;
20754;SDS011;26385;48.470;7.938;2022-09-02T01:27:14;5.93;;;4.53;;
20754;SDS011;26385;48.470;7.938;2022-09-02T01:29:42;5.60;;;5.10;;
20754;SDS011;26385;48.470;7.938;2022-09-02T01:32:08;5.53;;;4.93;;
20754;SDS011;26385;48.470;7.938;2022-09-02T01:34:34;5.82;;;4.90;;
20754;SDS011;26385;48.470;7.938;2022-09-02T01:37:00;5.25;;;4.75;;
20754;SDS011;26385;48.470;7.938;2022-09-02T01:39:25;5.50;;;5.00;;
20754;SDS011;26385;48.470;7.938;2022-09-02T01:41:50;8.13;;;5.28;;
20754;SDS011;26385;48.470;7.938;2022-09-02T01:44:16;5.45;;;4.95;;
20754;SDS011;26385;48.470;7.938;2022-09-02T01:46:43;5.63;;;5.10;;
20754;SDS011;26385;48.470;7.938;2022-09-02T01:49:09;5.53;;;5.03;;
20754;SDS011;26385;48.470;7.938;2022-09-02T01:51:34;5.60;;;4.55;;
20754;SDS011;26385;48.470;7.938;2022-09-02T01:54:00;5.20;;;4.63;;
20754;SDS011;26385;48.470;7.938;2022-09-02T01:56:25;5.68;;;5.00;;
20754;SDS011;26385;48.470;7.938;2022-09-02T01:58:50;6.47;;;4.80;;
20754;SDS011;26385;48.470;7.938;2022-09-02T02:01:16;5.18;;;4.78;;
20754;SDS011;26385;48.470;7.938;2022-09-02T02:03:41;6.20;;;4.80;;
20754;SDS011;26385;48.470;7.938;2022-09-02T02:06:07;5.28;;;4.70;;
20754;SDS011;26385;48.470;7.938;2022-09-02T02:08:34;5.47;;;4.97;;
20754;SDS011;26385;48.470;7.938;2022-09-02T02:10:59;5.65;;;5.15;;
20754;SDS011;26385;48.470;7.938;2022-09-02T02:13:25;5.85;;;5.25;;
20754;SDS011;26385;48.470;7.938;2022-09-02T02:15:50;5.25;;;4.85;;
20754;SDS011;26385;48.470;7.938;2022-09-02T02:18:16;5.93;;;5.07;;
20754;SDS011;26385;48.470;7.938;2022-09-02T02:20:41;5.78;;;4.60;;
20754;SDS011;26385;48.470;7.938;2022-09-02T02:23:06;5.32;;;4.80;;
20754;SDS011;26385;48.470;7.938;2022-09-02T02:25:32;5.10;;;4.70;;
20754;SDS011;26385;48.470;7.938;2022-09-02T02:27:57;5.53;;;4.57;;
20754;SDS011;26385;48.470;7.938;2022-09-02T02:30:23;5.00;;;4.50;;
20754;SDS011;26385;48.470;7.938;2022-09-02T02:32:48;5.63;;;4.80;;
20754;SDS011;26385;48.470;7.938;2022-09-02T02:35:14;5.75;;;5.18;;
20754;SDS011;26385;48.470;7.938;2022-09-02T02:37:42;5.45;;;4.95;;
20754;SDS011;26385;48.470;7.938;2022-09-02T02:40:08;5.45;;;4.93;;
20754;SDS011;26385;48.470;7.938;2022-09-02T02:42:35;5.90;;;5.30;;
20754;SDS011;26385;48.470;7.938;2022-09-02T02:45:01;6.03;;;5.53;;
20754;SDS011;26385;48.470;7.938;2022-09-02T02:47:34;7.93;;;5.40;;
20754;SDS011;26385;48.470;7.938;2022-09-02T02:50:03;5.97;;;5.22;;
20754;SDS011;26385;48.470;7.938;2022-09-02T02:52:29;5.82;;;5.32;;
20754;SDS011;26385;48.470;7.938;2022-09-02T02:54:54;5.93;;;5.45;;
20754;SDS011;26385;48.470;7.938;2022-09-02T02:57:19;6.10;;;5.50;;
20754;SDS011;26385;48.470;7.938;2022-09-02T02:59:44;7.53;;;6.13;;
20754;SDS011;26385;48.470;7.938;2022-09-02T03:02:10;6.32;;;5.70;;
20754;SDS011;26385;48.470;7.938;2022-09-02T03:04:35;6.15;;;5.55;;
20754;SDS011;26385;48.470;7.938;2022-09-02T03:07:02;6.97;;;6.07;;
20754;SDS011;26385;48.470;7.938;2022-09-02T03:09:29;7.22;;;6.45;;
20754;SDS011;26385;48.470;7.938;2022-09-02T03:11:55;7.30;;;6.45;;
20754;SDS011;26385;48.470;7.938;2022-09-02T03:14:20;7.80;;;6.22;;
20754;SDS011;26385;48.470;7.938;2022-09-02T03:16:45;7.07;;;6.35;;
20754;SDS011;26385;48.470;7.938;2022-09-02T03:19:11;7.32;;;6.57;;
20754;SDS011;26385;48.470;7.938;2022-09-02T03:21:38;10.20;;;6.03;;
20754;SDS011;26385;48.470;7.938;2022-09-02T03:24:04;6.75;;;6.15;;
20754;SDS011;26385;48.470;7.938;2022-09-02T03:26:29;7.60;;;6.80;;
20754;SDS011;26385;48.470;7.938;2022-09-02T03:28:54;6.90;;;6.20;;
20754;SDS011;26385;48.470;7.938;2022-09-02T03:31:21;7.15;;;6.47;;
20754;SDS011;26385;48.470;7.938;2022-09-02T03:33:48;8.15;;;6.28;;
20754;SDS011;26385;48.470;7.938;2022-09-02T03:36:24;8.13;;;6.25;;
20754;SDS011;26385;48.470;7.938;2022-09-02T03:38:52;8.95;;;6.38;;
20754;SDS011;26385;48.470;7.938;2022-09-02T03:41:18;8.98;;;6.50;;
20754;SDS011;26385;48.470;7.938;2022-09-02T03:43:43;6.80;;;6.20;;
20754;SDS011;26385;48.470;7.938;2022-09-02T03:46:09;7.90;;;6.78;;
20754;SDS011;26385;48.470;7.938;2022-09-02T03:48:34;7.40;;;6.47;;
20754;SDS011;26385;48.470;7.938;2022-09-02T03:51:00;7.75;;;6.35;;
20754;SDS011;26385;48.470;7.938;2022-09-02T03:53:27;7.40;;;6.70;;
20754;SDS011;26385;48.470;7.938;2022-09-02T03:55:52;7.35;;;6.60;;
20754;SDS011;26385;48.470;7.938;2022-09-02T03:58:18;8.18;;;6.70;;
20754;SDS011;26385;48.470;7.938;2022-09-02T04:00:48;7.35;;;6.43;;
20754;SDS011;26385;48.470;7.938;2022-09-02T04:03:15;10.68;;;6.40;;
20754;SDS011;26385;48.470;7.938;2022-09-02T04:05:44;7.18;;;6.47;;
20754;SDS011;26385;48.470;7.938;2022-09-02T04:08:11;7.80;;;6.97;;
20754;SDS011;26385;48.470;7.938;2022-09-02T04:10:36;7.95;;;6.55;;
20754;SDS011;26385;48.470;7.938;2022-09-02T04:13:02;7.93;;;6.75;;
20754;SDS011;26385;48.470;7.938;2022-09-02T04:15:27;7.20;;;6.60;;
20754;SDS011;26385;48.470;7.938;2022-09-02T04:17:52;7.47;;;6.78;;
20754;SDS011;26385;48.470;7.938;2022-09-02T04:20:17;8.15;;;7.30;;
20754;SDS011;26385;48.470;7.938;2022-09-02T04:22:43;7.93;;;7.13;;
20754;SDS011;26385;48.470;7.938;2022-09-02T04:25:08;7.35;;;6.68;;
20754;SDS011;26385;48.470;7.938;2022-09-02T04:27:34;5.30;;;4.90;;
20754;SDS011;26385;48.470;7.938;2022-09-02T04:30:00;5.93;;;5.32;;
20754;SDS011;26385;48.470;7.938;2022-09-02T04:32:26;6.93;;;6.32;;
20754;SDS011;26385;48.470;7.938;2022-09-02T04:34:51;7.72;;;6.45;;
20754;SDS011;26385;48.470;7.938;2022-09-02T04:37:17;6.85;;;6.25;;
20754;SDS011;26385;48.470;7.938;2022-09-02T04:39:42;6.43;;;5.82;;
20754;SDS011;26385;48.470;7.938;2022-09-02T04:42:07;6.97;;;5.85;;
20754;SDS011;26385;48.470;7.938;2022-09-02T04:44:33;6.85;;;6.15;;
20754;SDS011;26385;48.470;7.938;2022-09-02T04:46:58;7.75;;;6.68;;
20754;SDS011;26385;48.470;7.938;2022-09-02T04:49:23;7.88;;;6.22;;
20754;SDS011;26385;48.470;7.938;2022-09-02T04:51:49;7.45;;;6.57;;
20754;SDS011;26385;48.470;7.938;2022-09-02T04:54:14;7.47;;;6.68;;
20754;SDS011;26385;48.470;7.938;2022-09-02T04:56:40;7.30;;;6.20;;
20754;SDS011;26385;48.470;7.938;2022-09-02T04:59:05;6.90;;;6.30;;
20754;SDS011;26385;48.470;7.938;2022-09-02T05:01:32;7.13;;;6.30;;
20754;SDS011;26385;48.470;7.938;2022-09-02T05:04:00;7.55;;;5.88;;
20754;SDS011;26385;48.470;7.938;2022-09-02T05:06:28;6.47;;;5.80;;
20754;SDS011;26385;48.470;7.938;2022-09-02T05:08:54;8.40;;;5.97;;
20754;SDS011;26385;48.470;7.938;2022-09-02T05:11:22;11.25;;;7.05;;
20754;SDS011;26385;48.470;7.938;2022-09-02T05:13:52;6.60;;;5.97;;
20754;SDS011;26385;48.470;7.938;2022-09-02T05:16:23;8.63;;;6.20;;
20754;SDS011;26385;48.470;7.938;2022-09-02T05:18:54;6.45;;;5.65;;
20754;SDS011;26385;48.470;7.938;2022-09-02T05:21:20;6.68;;;5.97;;
20754;SDS011;26385;48.470;7.938;2022-09-02T05:23:47;6.30;;;5.72;;
20754;SDS011;26385;48.470;7.938;2022-09-02T05:26:13;7.28;;;5.93;;
20754;SDS011;26385;48.470;7.938;2022-09-02T05:28:39;7.18;;;6.47;;
20754;SDS011;26385;48.470;7.938;2022-09-02T05:31:06;7.32;;;6.45;;
20754;SDS011;26385;48.470;7.938;2022-09-02T05:33:37;7.78;;;7.05;;
20754;SDS011;26385;48.470;7.938;2022-09-02T05:36:05;9.85;;;8.10;;
20754;SDS011;26385;48.470;7.938;2022-09-02T05:38:31;8.43;;;7.30;;
20754;SDS011;26385;48.470;7.938;2022-09-02T05:40:57;9.50;;;7.53;;
20754;SDS011;26385;48.470;7.938;2022-09-02T05:43:23;8.85;;;7.95;;
20754;SDS011;26385;48.470;7.938;2022-09-02T05:45:49;10.20;;;7.68;;
20754;SDS011;26385;48.470;7.938;2022-09-02T05:48:14;9.95;;;8.10;;
20754;SDS011;26385;48.470;7.938;2022-09-02T05:50:58;10.55;;;7.82;;
20754;SDS011;26385;48.470;7.938;2022-09-02T05:53:23;8.25;;;7.45;;
20754;SDS011;26385;48.470;7.938;2022-09-02T05:55:50;9.75;;;7.90;;
20754;SDS011;26385;48.470;7.938;2022-09-02T05:58:16;9.45;;;7.97;;
20754;SDS011;26385;48.470;7.938;2022-09-02T06:00:41;10.18;;;7.40;;
20754;SDS011;26385;48.470;7.938;2022-09-02T06:03:06;9.95;;;7.95;;
20754;SDS011;26385;48.470;7.938;2022-09-02T06:05:31;9.38;;;8.27;;
20754;SDS011;26385;48.470;7.938;2022-09-02T06:07:57;8.85;;;7.82;;
20754;SDS011;26385;48.470;7.938;2022-09-02T06:10:22;10.35;;;7.55;;
20754;SDS011;26385;48.470;7.938;2022-09-02T06:12:47;9.88;;;7.50;;
20754;SDS011;26385;48.470;7.938;2022-09-02T06:15:13;8.63;;;7.20;;
20754;SDS011;26385;48.470;7.938;2022-09-02T06:17:38;9.55;;;7.90;;
20754;SDS011;26385;48.470;7.938;2022-09-02T06:20:04;7.88;;;7.07;;
20754;SDS011;26385;48.470;7.938;2022-09-02T06:22:30;8.23;;;7.40;;
20754;SDS011;26385;48.470;7.938;2022-09-02T06:24:55;8.27;;;7.38;;
20754;SDS011;26385;48.470;7.938;2022-09-02T06:27:20;7.28;;;6.57;;
20754;SDS011;26385;48.470;7.938;2022-09-02T06:29:46;8.70;;;7.05;;
20754;SDS011;26385;48.470;7.938;2022-09-02T06:32:11;8.50;;;7.22;;
20754;SDS011;26385;48.470;7.938;2022-09-02T06:34:37;8.82;;;7.95;;
20754;SDS011;26385;48.470;7.938;2022-09-02T06:37:03;8.45;;;7.55;;
20754;SDS011;26385;48.470;7.938;2022-09-02T06:39:28;8.00;;;7.18;;
20754;SDS011;26385;48.470;7.938;2022-09-02T06:41:54;7.20;;;6.50;;
20754;SDS011;26385;48.470;7.938;2022-09-02T06:44:19;7.80;;;6.85;;
20754;SDS011;26385;48.470;7.938;2022-09-02T06:46:52;7.72;;;6.95;;
20754;SDS011;26385;48.470;7.938;2022-09-02T06:49:18;7.00;;;6.30;;
20754;SDS011;26385;48.470;7.938;2022-09-02T06:51:46;6.70;;;6.10;;
20754;SDS011;26385;48.470;7.938;2022-09-02T06:54:14;7.88;;;6.40;;
20754;SDS011;26385;48.470;7.938;2022-09-02T06:56:42;7.10;;;5.82;;
20754;SDS011;26385;48.470;7.938;2022-09-02T06:59:08;7.95;;;6.38;;
20754;SDS011;26385;48.470;7.938;2022-09-02T07:01:34;6.38;;;5.65;;
20754;SDS011;26385;48.470;7.938;2022-09-02T07:04:00;6.05;;;5.55;;
20754;SDS011;26385;48.470;7.938;2022-09-02T07:06:46;5.93;;;5.43;;
20754;SDS011;26385;48.470;7.938;2022-09-02T07:09:15;6.03;;;5.53;;
20754;SDS011;26385;48.470;7.938;2022-09-02T07:11:42;5.38;;;4.60;;
20754;SDS011;26385;48.470;7.938;2022-09-02T07:14:11;5.40;;;4.90;;
20754;SDS011;26385;48.470;7.938;2022-09-02T07:16:41;6.35;;;5.25;;
20754;SDS011;26385;48.470;7.938;2022-09-02T07:19:08;5.30;;;4.90;;
20754;SDS011;26385;48.470;7.938;2022-09-02T07:21:34;5.70;;;5.03;;
20754;SDS011;26385;48.470;7.938;2022-09-02T07:24:00;6.82;;;5.18;;
20754;SDS011;26385;48.470;7.938;2022-09-02T07:26:27;7.95;;;5.00;;
20754;SDS011;26385;48.470;7.938;2022-09-02T07:28:53;6.13;;;5.53;;
20754;SDS011;26385;48.470;7.938;2022-09-02T07:31:18;5.78;;;5.10;;
20754;SDS011;26385;48.470;7.938;2022-09-02T07:33:44;6.10;;;5.00;;
20754;SDS011;26385;48.470;7.938;2022-09-02T07:36:10;6.68;;;4.80;;
20754;SDS011;26385;48.470;7.938;2022-09-02T07:38:36;5.13;;;4.72;;
20754;SDS011;26385;48.470;7.938;2022-09-02T07:41:04;6.07;;;5.10;;
20754;SDS011;26385;48.470;7.938;2022-09-02T07:43:30;7.82;;;5.18;;
20754;SDS011;26385;48.470;7.938;2022-09-02T07:45:56;5.95;;;5.40;;
20754;SDS011;26385;48.470;7.938;2022-09-02T07:48:25;5.82;;;5.22;;
20754;SDS011;26385;48.470;7.938;2022-09-02T07:50:51;5.65;;;4.85;;
20754;SDS011;26385;48.470;7.938;2022-09-02T07:53:17;4.95;;;4.50;;
20754;SDS011;26385;48.470;7.938;2022-09-02T07:55:43;4.40;;;3.97;;
20754;SDS011;26385;48.470;7.938;2022-09-02T07:58:10;3.75;;;3.45;;
20754;SDS011;26385;48.470;7.938;2022-09-02T08:00:36;3.80;;;3.50;;
20754;SDS011;26385;48.470;7.938;2022-09-02T08:03:02;3.90;;;3.60;;
20754;SDS011;26385;48.470;7.938;2022-09-02T08:05:28;4.38;;;3.30;;
20754;SDS011;26385;48.470;7.938;2022-09-02T08:07:54;5.15;;;3.58;;
20754;SDS011;26385;48.470;7.938;2022-09-02T08:10:20;3.55;;;2.85;;
20754;SDS011;26385;48.470;7.938;2022-09-02T08:12:45;4.25;;;2.75;;
20754;SDS011;26385;48.470;7.938;2022-09-02T08:15:11;4.07;;;3.00;;
20754;SDS011;26385;48.470;7.938;2022-09-02T08:17:37;3.30;;;2.75;;
20754;SDS011;26385;48.470;7.938;2022-09-02T08:20:07;4.15;;;2.92;;
20754;SDS011;26385;48.470;7.938;2022-09-02T08:22:34;2.90;;;2.60;;
20754;SDS011;26385;48.470;7.938;2022-09-02T08:25:00;3.00;;;2.80;;
20754;SDS011;26385;48.470;7.938;2022-09-02T08:27:25;4.05;;;3.00;;
20754;SDS011;26385;48.470;7.938;2022-09-02T08:29:51;3.10;;;2.80;;
20754;SDS011;26385;48.470;7.938;2022-09-02T08:32:17;3.60;;;2.92;;
20754;SDS011;26385;48.470;7.938;2022-09-02T08:34:42;3.30;;;2.75;;
20754;SDS011;26385;48.470;7.938;2022-09-02T08:37:07;3.20;;;2.90;;
20754;SDS011;26385;48.470;7.938;2022-09-02T08:39:33;3.65;;;2.97;;
20754;SDS011;26385;48.470;7.938;2022-09-02T08:44:26;3.03;;;2.75;;
20754;SDS011;26385;48.470;7.938;2022-09-02T08:46:54;5.13;;;3.10;;
20754;SDS011;26385;48.470;7.938;2022-09-02T08:49:24;4.20;;;2.95;;
20754;SDS011;26385;48.470;7.938;2022-09-02T08:51:55;3.88;;;2.67;;
20754;SDS011;26385;48.470;7.938;2022-09-02T08:54:29;2.85;;;2.55;;
20754;SDS011;26385;48.470;7.938;2022-09-02T08:56:58;4.40;;;2.50;;
20754;SDS011;26385;48.470;7.938;2022-09-02T08:59:24;2.90;;;2.63;;
20754;SDS011;26385;48.470;7.938;2022-09-02T09:04:52;4.47;;;3.15;;
20754;SDS011;26385;48.470;7.938;2022-09-02T09:07:33;3.38;;;3.05;;
20754;SDS011;26385;48.470;7.938;2022-09-02T09:15:55;3.47;;;2.83;;
20754;SDS011;26385;48.470;7.938;2022-09-02T09:18:37;3.58;;;2.97;;
20754;SDS011;26385;48.470;7.938;2022-09-02T09:21:05;4.40;;;2.83;;
20754;SDS011;26385;48.470;7.938;2022-09-02T09:23:31;3.47;;;2.88;;
20754;SDS011;26385;48.470;7.938;2022-09-02T09:26:09;3.55;;;2.85;;
20754;SDS011;26385;48.470;7.938;2022-09-02T09:31:11;2.90;;;2.60;;
20754;SDS011;26385;48.470;7.938;2022-09-02T09:33:39;3.53;;;2.47;;
20754;SDS011;26385;48.470;7.938;2022-09-02T09:36:18;3.20;;;2.65;;
20754;SDS011;26385;48.470;7.938;2022-09-02T09:38:44;3.47;;;2.80;;
20754;SDS011;26385;48.470;7.938;2022-09-02T09:41:10;2.97;;;2.30;;
20754;SDS011;26385;48.470;7.938;2022-09-02T09:43:39;2.97;;;2.15;;
20754;SDS011;26385;48.470;7.938;2022-09-02T09:46:25;2.05;;;1.85;;
20754;SDS011;26385;48.470;7.938;2022-09-02T09:48:52;2.25;;;2.00;;
20754;SDS011;26385;48.470;7.938;2022-09-02T09:51:18;2.45;;;1.90;;
20754;SDS011;26385;48.470;7.938;2022-09-02T09:53:44;2.05;;;1.83;;
20754;SDS011;26385;48.470;7.938;2022-09-02T10:03:39;2.03;;;1.60;;
20754;SDS011;26385;48.470;7.938;2022-09-02T10:06:19;2.20;;;2.00;;
20754;SDS011;26385;48.470;7.938;2022-09-02T10:08:53;4.57;;;1.90;;
20754;SDS011;26385;48.470;7.938;2022-09-02T10:11:24;2.80;;;1.98;;
20754;SDS011;26385;48.470;7.938;2022-09-02T10:13:53;2.45;;;2.10;;
20754;SDS011;26385;48.470;7.938;2022-09-02T10:16:58;4.05;;;2.00;;
20754;SDS011;26385;48.470;7.938;2022-09-02T10:19:33;3.50;;;1.77;;
20754;SDS011;26385;48.470;7.938;2022-09-02T10:22:24;3.90;;;1.90;;
20754;SDS011;26385;48.470;7.938;2022-09-02T10:25:28;3.13;;;1.73;;
20754;SDS011;26385;48.470;7.938;2022-09-02T10:36:34;2.53;;;1.80;;
20754;SDS011;26385;48.470;7.938;2022-09-02T10:39:15;2.75;;;1.98;;
20754;SDS011;26385;48.470;7.938;2022-09-02T10:41:43;2.47;;;2.25;;
20754;SDS011;26385;48.470;7.938;2022-09-02T10:46:58;2.08;;;1.80;;
20754;SDS011;26385;48.470;7.938;2022-09-02T10:49:37;3.85;;;1.90;;
20754;SDS011;26385;48.470;7.938;2022-09-02T10:55:21;3.58;;;1.83;;
20754;SDS011;26385;48.470;7.938;2022-09-02T11:00:27;2.13;;;1.67;;
20754;SDS011;26385;48.470;7.938;2022-09-02T11:03:04;2.00;;;1.80;;
20754;SDS011;26385;48.470;7.938;2022-09-02T11:05:40;2.15;;;1.65;;
20754;SDS011;26385;48.470;7.938;2022-09-02T11:08:19;3.00;;;1.77;;
20754;SDS011;26385;48.470;7.938;2022-09-02T11:13:24;1.77;;;1.67;;
20754;SDS011;26385;48.470;7.938;2022-09-02T11:24:07;3.65;;;1.30;;
20754;SDS011;26385;48.470;7.938;2022-09-02T11:30:00;2.92;;;1.58;;
20754;SDS011;26385;48.470;7.938;2022-09-02T11:32:35;1.85;;;1.70;;
20754;SDS011;26385;48.470;7.938;2022-09-02T11:35:17;1.60;;;1.50;;
20754;SDS011;26385;48.470;7.938;2022-09-02T11:37:48;2.45;;;1.60;;
20754;SDS011;26385;48.470;7.938;2022-09-02T11:40:24;1.55;;;1.45;;
20754;SDS011;26385;48.470;7.938;2022-09-02T11:54:15;1.70;;;1.60;;
20754;SDS011;26385;48.470;7.938;2022-09-02T11:56:45;1.77;;;1.67;;
20754;SDS011;26385;48.470;7.938;2022-09-02T11:59:20;2.50;;;1.67;;
20754;SDS011;26385;48.470;7.938;2022-09-02T12:02:07;2.05;;;1.65;;
20754;SDS011;26385;48.470;7.938;2022-09-02T12:04:33;4.70;;;2.05;;
20754;SDS011;26385;48.470;7.938;2022-09-02T12:09:40;1.70;;;1.60;;
20754;SDS011;26385;48.470;7.938;2022-09-02T12:12:07;3.25;;;1.60;;
20754;SDS011;26385;48.470;7.938;2022-09-02T12:17:11;2.22;;;1.30;;
20754;SDS011;26385;48.470;7.938;2022-09-02T12:20:01;1.40;;;1.30;;
20754;SDS011;26385;48.470;7.938;2022-09-02T12:22:30;2.53;;;1.70;;
20754;SDS011;26385;48.470;7.938;2022-09-02T12:25:00;1.42;;;1.35;;
20754;SDS011;26385;48.470;7.938;2022-09-02T12:27:28;2.65;;;1.77;;
20754;SDS011;26385;48.470;7.938;2022-09-02T12:29:57;1.70;;;1.60;;
20754;SDS011;26385;48.470;7.938;2022-09-02T12:33:00;3.17;;;1.50;;
20754;SDS011;26385;48.470;7.938;2022-09-02T12:35:33;1.67;;;1.58;;
20754;SDS011;26385;48.470;7.938;2022-09-02T12:40:39;1.50;;;1.40;;
20754;SDS011;26385;48.470;7.938;2022-09-02T12:52:08;1.80;;;1.70;;
20754;SDS011;26385;48.470;7.938;2022-09-02T12:54:57;2.60;;;1.60;;
20754;SDS011;26385;48.470;7.938;2022-09-02T12:57:38;2.67;;;1.52;;
20754;SDS011;26385;48.470;7.938;2022-09-02T13:00:05;1.95;;;1.60;;
20754;SDS011;26385;48.470;7.938;2022-09-02T13:02:40;1.88;;;1.50;;
20754;SDS011;26385;48.470;7.938;2022-09-02T13:05:19;2.17;;;1.80;;
20754;SDS011;26385;48.470;7.938;2022-09-02T13:10:46;1.38;;;1.30;;
20754;SDS011;26385;48.470;7.938;2022-09-02T13:16:26;1.80;;;1.50;;
20754;SDS011;26385;48.470;7.938;2022-09-02T13:25:01;1.48;;;1.38;;
20754;SDS011;26385;48.470;7.938;2022-09-02T13:30:34;6.43;;;1.50;;
20754;SDS011;26385;48.470;7.938;2022-09-02T13:33:15;12.52;;;2.05;;
20754;SDS011;26385;48.470;7.938;2022-09-02T13:35:40;4.40;;;1.50;;
20754;SDS011;26385;48.470;7.938;2022-09-02T13:38:10;5.22;;;1.55;;
20754;SDS011;26385;48.470;7.938;2022-09-02T13:40:37;2.65;;;1.50;;
20754;SDS011;26385;48.470;7.938;2022-09-02T13:43:25;1.75;;;1.65;;
20754;SDS011;26385;48.470;7.938;2022-09-02T13:45:51;2.03;;;1.80;;
20754;SDS011;26385;48.470;7.938;2022-09-02T13:48:22;2.00;;;1.80;;
20754;SDS011;26385;48.470;7.938;2022-09-02T13:50:50;1.50;;;1.40;;
20754;SDS011;26385;48.470;7.938;2022-09-02T13:53:31;2.22;;;1.33;;
20754;SDS011;26385;48.470;7.938;2022-09-02T13:56:00;1.88;;;1.48;;
20754;SDS011;26385;48.470;7.938;2022-09-02T14:00:55;3.25;;;1.67;;
20754;SDS011;26385;48.470;7.938;2022-09-02T14:03:22;2.90;;;1.70;;
20754;SDS011;26385;48.470;7.938;2022-09-02T14:05:49;2.10;;;1.35;;
20754;SDS011;26385;48.470;7.938;2022-09-02T14:08:20;1.55;;;1.45;;
20754;SDS011;26385;48.470;7.938;2022-09-02T14:10:47;2.08;;;1.50;;
20754;SDS011;26385;48.470;7.938;2022-09-02T14:13:16;1.60;;;1.50;;
20754;SDS011;26385;48.470;7.938;2022-09-02T14:15:42;1.77;;;1.67;;
20754;SDS011;26385;48.470;7.938;2022-09-02T14:18:08;1.70;;;1.60;;
20754;SDS011;26385;48.470;7.938;2022-09-02T14:20:36;1.88;;;1.30;;
20754;SDS011;26385;48.470;7.938;2022-09-02T14:23:03;1.50;;;1.40;;
20754;SDS011;26385;48.470;7.938;2022-09-02T14:25:32;3.58;;;1.52;;
20754;SDS011;26385;48.470;7.938;2022-09-02T14:28:01;1.70;;;1.60;;
20754;SDS011;26385;48.470;7.938;2022-09-02T14:30:42;2.25;;;1.67;;
20754;SDS011;26385;48.470;7.938;2022-09-02T14:35:55;2.70;;;1.50;;
20754;SDS011;26385;48.470;7.938;2022-09-02T14:38:30;1.83;;;1.70;;
20754;SDS011;26385;48.470;7.938;2022-09-02T14:41:09;1.50;;;1.40;;
20754;SDS011;26385;48.470;7.938;2022-09-02T14:43:41;1.65;;;1.55;;
20754;SDS011;26385;48.470;7.938;2022-09-02T14:46:13;1.50;;;1.40;;
20754;SDS011;26385;48.470;7.938;2022-09-02T14:48:55;2.78;;;1.30;;
20754;SDS011;26385;48.470;7.938;2022-09-02T14:51:22;1.98;;;1.50;;
20754;SDS011;26385;48.470;7.938;2022-09-02T14:53:55;2.65;;;1.70;;
20754;SDS011;26385;48.470;7.938;2022-09-02T14:59:08;1.80;;;1.50;;
20754;SDS011;26385;48.470;7.938;2022-09-02T15:01:46;2.33;;;1.77;;
20754;SDS011;26385;48.470;7.938;2022-09-02T15:04:14;2.75;;;1.60;;
20754;SDS011;26385;48.470;7.938;2022-09-02T15:06:40;4.25;;;1.80;;
20754;SDS011;26385;48.470;7.938;2022-09-02T15:09:06;3.03;;;1.50;;
20754;SDS011;26385;48.470;7.938;2022-09-02T15:11:31;2.87;;;1.37;;
20754;SDS011;26385;48.470;7.938;2022-09-02T15:13:57;1.50;;;1.40;;
20754;SDS011;26385;48.470;7.938;2022-09-02T15:16:23;1.85;;;1.73;;
20754;SDS011;26385;48.470;7.938;2022-09-02T15:18:48;2.30;;;1.70;;
20754;SDS011;26385;48.470;7.938;2022-09-02T15:21:13;2.93;;;1.80;;
20754;SDS011;26385;48.470;7.938;2022-09-02T15:23:39;2.75;;;1.55;;
20754;SDS011;26385;48.470;7.938;2022-09-02T15:26:05;2.78;;;1.90;;
20754;SDS011;26385;48.470;7.938;2022-09-02T15:28:30;2.15;;;1.95;;
20754;SDS011;26385;48.470;7.938;2022-09-02T15:30:59;2.95;;;2.00;;
20754;SDS011;26385;48.470;7.938;2022-09-02T15:33:25;2.33;;;2.13;;
20754;SDS011;26385;48.470;7.938;2022-09-02T15:35:51;2.67;;;1.70;;
20754;SDS011;26385;48.470;7.938;2022-09-02T15:38:17;2.83;;;1.70;;
20754;SDS011;26385;48.470;7.938;2022-09-02T15:40:42;2.50;;;1.80;;
20754;SDS011;26385;48.470;7.938;2022-09-02T15:43:11;1.92;;;1.80;;
20754;SDS011;26385;48.470;7.938;2022-09-02T15:45:45;4.07;;;1.73;;
20754;SDS011;26385;48.470;7.938;2022-09-02T15:48:12;3.30;;;1.70;;
20754;SDS011;26385;48.470;7.938;2022-09-02T15:50:37;2.72;;;1.90;;
20754;SDS011;26385;48.470;7.938;2022-09-02T15:53:03;1.65;;;1.55;;
20754;SDS011;26385;48.470;7.938;2022-09-02T15:55:32;1.60;;;1.50;;
20754;SDS011;26385;48.470;7.938;2022-09-02T15:57:58;1.90;;;1.65;;
20754;SDS011;26385;48.470;7.938;2022-09-02T16:00:23;2.40;;;1.50;;
20754;SDS011;26385;48.470;7.938;2022-09-02T16:02:50;1.70;;;1.60;;
20754;SDS011;26385;48.470;7.938;2022-09-02T16:05:15;3.47;;;2.10;;
20754;SDS011;26385;48.470;7.938;2022-09-02T16:07:40;3.30;;;1.67;;
20754;SDS011;26385;48.470;7.938;2022-09-02T16:10:06;2.65;;;1.77;;
20754;SDS011;26385;48.470;7.938;2022-09-02T16:12:32;2.28;;;1.80;;
20754;SDS011;26385;48.470;7.938;2022-09-02T16:14:57;1.83;;;1.50;;
20754;SDS011;26385;48.470;7.938;2022-09-02T16:17:23;2.92;;;1.60;;
20754;SDS011;26385;48.470;7.938;2022-09-02T16:19:49;2.90;;;1.50;;
20754;SDS011;26385;48.470;7.938;2022-09-02T16:22:14;2.83;;;1.83;;
20754;SDS011;26385;48.470;7.938;2022-09-02T16:24:39;2.40;;;1.50;;
20754;SDS011;26385;48.470;7.938;2022-09-02T16:27:05;2.83;;;1.75;;
20754;SDS011;26385;48.470;7.938;2022-09-02T16:29:30;2.13;;;1.92;;
20754;SDS011;26385;48.470;7.938;2022-09-02T16:31:56;3.25;;;2.28;;
20754;SDS011;26385;48.470;7.938;2022-09-02T16:34:22;2.70;;;1.80;;
20754;SDS011;26385;48.470;7.938;2022-09-02T16:36:48;1.90;;;1.80;;
20754;SDS011;26385;48.470;7.938;2022-09-02T16:39:14;1.70;;;1.50;;